Time,TemperatureF,DewpointF,PressureIn,WindDirection,WindDirectionDegrees,WindSpeedMPH,WindSpeedGustMPH,Humidity,HourlyPrecipIn,Conditions,Clouds,dailyrainin,SoftwareType,DateUTC
2013-06-28 00:00:00,77.9,72.4,29.78,SSW,203,0.0,0.0,83,0.00,,,0.00,WUHU216HW,2013-06-28 04:00:00,
2013-06-28 00:01:00,77.9,72.4,29.78,SSW,203,0.0,0.0,83,0.00,,,0.00,WUHU216HW,2013-06-28 04:01:00,
2013-06-28 00:06:00,77.9,72.4,29.78,SSW,203,0.0,0.0,83,0.00,,,0.00,WUHU216HW,2013-06-28 04:06:00,
2013-06-28 00:30:00,77.4,71.8,29.77,SSE,158,0.0,0.0,83,0.00,,,0.00,WUHU216HW,2013-06-28 04:30:00,
2013-06-28 00:35:00,77.4,71.8,29.77,SSE,158,0.0,0.0,83,0.00,,,0.00,WUHU216HW,2013-06-28 04:35:00,
2013-06-28 01:00:00,76.7,71.5,29.76,West,270,0.0,0.0,84,0.00,,,0.00,WUHU216HW,2013-06-28 05:00:00,
2013-06-28 01:05:00,76.7,71.5,29.76,West,270,0.0,0.0,84,0.00,,,0.00,WUHU216HW,2013-06-28 05:05:00,
2013-06-28 01:30:00,76.0,71.2,29.76,South,180,0.0,0.0,85,0.00,,,0.00,WUHU216HW,2013-06-28 05:30:00,
2013-06-28 01:35:00,76.0,71.2,29.76,South,180,0.0,0.0,85,0.00,,,0.00,WUHU216HW,2013-06-28 05:35:00,
2013-06-28 02:00:00,75.8,71.4,29.76,SW,225,0.4,0.4,86,0.00,,,0.00,WUHU216HW,2013-06-28 06:00:00,
2013-06-28 02:05:00,75.8,71.4,29.76,SW,225,0.4,0.4,86,0.00,,,0.00,WUHU216HW,2013-06-28 06:05:00,
2013-06-28 02:30:00,75.2,71.2,29.76,SW,225,0.4,0.4,87,0.00,,,0.00,WUHU216HW,2013-06-28 06:30:00,
2013-06-28 02:35:00,75.2,71.2,29.76,SW,225,0.4,0.4,87,0.00,,,0.00,WUHU216HW,2013-06-28 06:35:00,
2013-06-28 03:00:00,75.2,71.2,29.76,SSW,203,1.1,1.1,87,0.00,,,0.00,WUHU216HW,2013-06-28 07:00:00,
2013-06-28 03:05:00,75.2,71.2,29.76,SSW,203,1.1,1.1,87,0.00,,,0.00,WUHU216HW,2013-06-28 07:05:00,
2013-06-28 03:30:00,74.7,70.9,29.74,South,180,0.7,0.7,88,0.00,,,0.00,WUHU216HW,2013-06-28 07:30:00,
2013-06-28 03:35:00,74.7,70.9,29.74,South,180,0.7,0.7,88,0.00,,,0.00,WUHU216HW,2013-06-28 07:35:00,
2013-06-28 04:00:00,74.2,70.4,29.73,South,180,0.7,0.7,88,0.00,,,0.00,WUHU216HW,2013-06-28 08:00:00,
2013-06-28 04:05:00,74.2,70.4,29.73,South,180,0.7,0.7,88,0.00,,,0.00,WUHU216HW,2013-06-28 08:05:00,
2013-06-28 04:30:00,73.8,70.0,29.73,SW,225,0.0,0.0,88,0.00,,,0.00,WUHU216HW,2013-06-28 08:30:00,
2013-06-28 04:35:00,73.8,70.0,29.73,SW,225,0.0,0.0,88,0.00,,,0.00,WUHU216HW,2013-06-28 08:35:00,
2013-06-28 05:00:00,73.4,69.7,29.72,SW,225,0.0,0.0,88,0.00,,,0.00,WUHU216HW,2013-06-28 09:00:00,
2013-06-28 05:05:00,73.4,69.7,29.72,SW,225,0.0,0.0,88,0.00,,,0.00,WUHU216HW,2013-06-28 09:05:00,
2013-06-28 05:30:00,73.1,69.3,29.72,SW,225,0.0,0.0,88,0.00,,,0.00,WUHU216HW,2013-06-28 09:30:00,
2013-06-28 05:35:00,73.1,69.3,29.72,SW,225,0.0,0.0,88,0.00,,,0.00,WUHU216HW,2013-06-28 09:35:00,
2013-06-28 06:00:00,72.9,69.1,29.72,WSW,248,0.0,0.0,88,0.00,,,0.00,WUHU216HW,2013-06-28 10:00:00,
2013-06-28 06:05:00,72.9,69.1,29.72,WSW,248,0.0,0.0,88,0.00,,,0.00,WUHU216HW,2013-06-28 10:05:00,
2013-06-28 06:30:00,72.7,68.9,29.72,South,180,0.0,0.0,88,0.00,,,0.00,WUHU216HW,2013-06-28 10:30:00,
2013-06-28 06:35:00,72.7,68.9,29.72,South,180,0.0,0.0,88,0.00,,,0.00,WUHU216HW,2013-06-28 10:35:00,
2013-06-28 07:00:00,72.7,68.9,29.73,SW,225,0.0,0.0,88,0.00,,,0.00,WUHU216HW,2013-06-28 11:00:00,
2013-06-28 07:05:00,72.7,68.9,29.73,SW,225,0.0,0.0,88,0.00,,,0.00,WUHU216HW,2013-06-28 11:05:00,
2013-06-28 07:30:00,72.7,68.9,29.72,SSE,158,0.0,0.0,88,0.00,,,0.00,WUHU216HW,2013-06-28 11:30:00,
2013-06-28 07:35:00,72.7,68.9,29.72,SSE,158,0.0,0.0,88,0.00,,,0.00,WUHU216HW,2013-06-28 11:35:00,
2013-06-28 08:00:00,73.3,70.2,29.73,East,90,0.0,0.0,90,0.00,,,0.00,WUHU216HW,2013-06-28 12:00:00,
2013-06-28 08:05:00,73.3,70.2,29.73,East,90,0.0,0.0,90,0.00,,,0.00,WUHU216HW,2013-06-28 12:05:00,
2013-06-28 08:30:00,74.3,70.9,29.73,SW,225,0.0,0.0,89,0.00,,,0.00,WUHU216HW,2013-06-28 12:30:00,
2013-06-28 08:35:00,74.3,70.9,29.73,SW,225,0.0,0.0,89,0.00,,,0.00,WUHU216HW,2013-06-28 12:35:00,
2013-06-28 09:00:00,75.4,71.6,29.73,SE,135,0.0,0.0,88,0.00,,,0.00,WUHU216HW,2013-06-28 13:00:00,
2013-06-28 09:05:00,75.4,71.6,29.73,SE,135,0.0,0.0,88,0.00,,,0.00,WUHU216HW,2013-06-28 13:05:00,
2013-06-28 09:30:00,76.7,72.5,29.73,SW,225,0.0,0.0,87,0.00,,,0.00,WUHU216HW,2013-06-28 13:30:00,
2013-06-28 09:35:00,76.7,72.5,29.73,SW,225,0.0,0.0,87,0.00,,,0.00,WUHU216HW,2013-06-28 13:35:00,
2013-06-28 10:00:00,77.9,73.1,29.72,SSW,203,0.0,0.0,85,0.00,,,0.00,WUHU216HW,2013-06-28 14:00:00,
2013-06-28 10:05:00,77.9,73.1,29.72,SSW,203,0.0,0.0,85,0.00,,,0.00,WUHU216HW,2013-06-28 14:05:00,
2013-06-28 10:30:00,79.6,73.3,29.73,SSE,158,0.0,0.0,81,0.00,,,0.00,WUHU216HW,2013-06-28 14:30:00,
2013-06-28 10:35:00,79.6,73.3,29.73,SSE,158,0.0,0.0,81,0.00,,,0.00,WUHU216HW,2013-06-28 14:35:00,
2013-06-28 11:00:00,81.4,73.9,29.73,SW,225,0.0,0.0,78,0.00,,,0.00,WUHU216HW,2013-06-28 15:00:00,
2013-06-28 11:05:00,81.4,73.9,29.73,SW,225,0.0,0.0,78,0.00,,,0.00,WUHU216HW,2013-06-28 15:05:00,
2013-06-28 11:30:00,83.2,74.8,29.72,SSE,158,0.9,0.9,76,0.00,,,0.00,WUHU216HW,2013-06-28 15:30:00,
2013-06-28 11:35:00,83.2,74.8,29.72,SSE,158,0.9,0.9,76,0.00,,,0.00,WUHU216HW,2013-06-28 15:35:00,
2013-06-28 12:00:00,85.1,75.2,29.72,SSW,203,0.4,0.4,72,0.00,,,0.00,WUHU216HW,2013-06-28 16:00:00,
2013-06-28 12:05:00,85.1,75.2,29.72,SSW,203,0.4,0.4,72,0.00,,,0.00,WUHU216HW,2013-06-28 16:05:00,
2013-06-28 12:30:00,86.8,75.9,29.72,SSW,203,0.4,0.4,70,0.00,,,0.00,WUHU216HW,2013-06-28 16:30:00,
2013-06-28 12:35:00,86.8,75.9,29.72,SSW,203,0.4,0.4,70,0.00,,,0.00,WUHU216HW,2013-06-28 16:35:00,
2013-06-28 13:00:00,87.5,76.1,29.71,SSW,203,1.8,1.8,69,0.00,,,0.00,WUHU216HW,2013-06-28 17:00:00,
2013-06-28 13:05:00,87.5,76.1,29.71,SSW,203,1.8,1.8,69,0.00,,,0.00,WUHU216HW,2013-06-28 17:05:00,
2013-06-28 13:30:00,90.0,76.7,29.70,SSW,203,0.9,0.9,65,0.00,,,0.00,WUHU216HW,2013-06-28 17:30:00,
2013-06-28 13:35:00,90.0,76.7,29.70,SSW,203,0.9,0.9,65,0.00,,,0.00,WUHU216HW,2013-06-28 17:35:00,
2013-06-28 14:00:00,90.9,76.5,29.70,SSW,203,1.8,1.8,63,0.00,,,0.00,WUHU216HW,2013-06-28 18:00:00,
2013-06-28 14:05:00,90.9,76.5,29.70,SSW,203,1.8,1.8,63,0.00,,,0.00,WUHU216HW,2013-06-28 18:05:00,
2013-06-28 14:30:00,88.7,75.0,29.69,West,270,1.8,1.8,64,0.00,,,0.00,WUHU216HW,2013-06-28 18:30:00,
2013-06-28 14:35:00,88.7,75.0,29.69,West,270,1.8,1.8,64,0.00,,,0.00,WUHU216HW,2013-06-28 18:35:00,
2013-06-28 15:00:00,88.9,77.1,29.68,ESE,113,1.3,1.3,68,0.00,,,0.00,WUHU216HW,2013-06-28 19:00:00,
2013-06-28 15:05:00,88.9,77.1,29.68,ESE,113,1.3,1.3,68,0.00,,,0.00,WUHU216HW,2013-06-28 19:05:00,
2013-06-28 15:30:00,88.9,75.6,29.67,NW,315,0.4,0.4,65,0.00,,,0.00,WUHU216HW,2013-06-28 19:30:00,
2013-06-28 15:35:00,88.9,75.6,29.67,NW,315,0.4,0.4,65,0.00,,,0.00,WUHU216HW,2013-06-28 19:35:00,
2013-06-28 16:00:00,90.4,76.5,29.65,SSW,203,0.4,0.4,64,0.00,,,0.00,WUHU216HW,2013-06-28 20:00:00,
2013-06-28 16:05:00,90.4,76.5,29.65,SSW,203,0.4,0.4,64,0.00,,,0.00,WUHU216HW,2013-06-28 20:05:00,
2013-06-28 16:30:00,90.2,75.9,29.63,SSW,203,1.1,1.1,63,0.00,,,0.00,WUHU216HW,2013-06-28 20:30:00,
2013-06-28 16:35:00,90.2,75.9,29.63,SSW,203,1.1,1.1,63,0.00,,,0.00,WUHU216HW,2013-06-28 20:35:00,
2013-06-28 17:00:00,89.3,74.6,29.61,NW,315,0.0,0.0,62,0.00,,,0.00,WUHU216HW,2013-06-28 21:00:00,
2013-06-28 17:05:00,89.3,74.6,29.61,NW,315,0.0,0.0,62,0.00,,,0.00,WUHU216HW,2013-06-28 21:05:00,
2013-06-28 17:30:00,87.5,74.7,29.63,SW,225,0.7,0.7,66,0.00,,,0.00,WUHU216HW,2013-06-28 21:30:00,
2013-06-28 17:35:00,87.5,74.7,29.63,SW,225,0.7,0.7,66,0.00,,,0.00,WUHU216HW,2013-06-28 21:35:00,
2013-06-28 18:00:00,77.0,67.3,29.67,North,0,1.1,1.1,72,0.41,,,0.00,WUHU216HW,2013-06-28 22:00:00,
2013-06-28 18:05:00,77.0,67.3,29.67,North,0,1.1,1.1,72,0.41,,,0.00,WUHU216HW,2013-06-28 22:05:00,
2013-06-28 18:30:00,74.9,68.1,29.65,NNW,338,2.0,2.0,79,0.61,,,0.41,WUHU216HW,2013-06-28 22:30:00,
2013-06-28 18:35:00,74.9,68.1,29.65,NNW,338,2.0,2.0,79,0.61,,,0.41,WUHU216HW,2013-06-28 22:35:00,
2013-06-28 19:00:00,74.9,69.1,29.68,NNE,23,0.0,0.0,82,0.11,,,0.61,WUHU216HW,2013-06-28 23:00:00,
2013-06-28 19:05:00,74.9,69.1,29.68,NNE,23,0.0,0.0,82,0.11,,,0.61,WUHU216HW,2013-06-28 23:05:00,
2013-06-28 19:30:00,75.6,69.8,29.66,South,180,0.4,0.4,82,0.00,,,0.61,WUHU216HW,2013-06-28 23:30:00,
2013-06-28 19:35:00,75.6,69.8,29.66,South,180,0.4,0.4,82,0.00,,,0.61,WUHU216HW,2013-06-28 23:35:00,
2013-06-28 20:00:00,74.9,69.4,29.64,SSW,203,1.8,1.8,83,0.00,,,0.61,WUHU216HW,2013-06-29 00:00:00,
2013-06-28 20:05:00,74.9,69.4,29.64,SSW,203,1.8,1.8,83,0.00,,,0.61,WUHU216HW,2013-06-29 00:05:00,
2013-06-28 20:30:00,74.2,69.0,29.65,WSW,248,0.2,0.2,84,0.00,,,0.61,WUHU216HW,2013-06-29 00:30:00,
2013-06-28 20:35:00,74.2,69.0,29.65,WSW,248,0.2,0.2,84,0.00,,,0.61,WUHU216HW,2013-06-29 00:35:00,
2013-06-28 21:00:00,73.8,69.0,29.65,SW,225,0.4,0.4,85,0.00,,,0.61,WUHU216HW,2013-06-29 01:00:00,
2013-06-28 21:05:00,73.8,69.0,29.65,SW,225,0.4,0.4,85,0.00,,,0.61,WUHU216HW,2013-06-29 01:05:00,
2013-06-28 21:30:00,73.6,69.2,29.66,SW,225,0.2,0.2,86,0.00,,,0.61,WUHU216HW,2013-06-29 01:30:00,
2013-06-28 21:35:00,73.6,69.2,29.66,SW,225,0.2,0.2,86,0.00,,,0.61,WUHU216HW,2013-06-29 01:35:00,
2013-06-28 22:00:00,73.4,69.0,29.66,WNW,293,0.0,0.0,86,0.00,,,0.61,WUHU216HW,2013-06-29 02:00:00,
2013-06-28 22:05:00,73.4,69.0,29.66,WNW,293,0.0,0.0,86,0.00,,,0.61,WUHU216HW,2013-06-29 02:05:00,
2013-06-28 22:30:00,73.4,69.4,29.67,WSW,248,0.4,0.4,87,0.00,,,0.61,WUHU216HW,2013-06-29 02:30:00,
2013-06-28 22:35:00,73.4,69.4,29.67,WSW,248,0.4,0.4,87,0.00,,,0.61,WUHU216HW,2013-06-29 02:35:00,
2013-06-28 23:00:00,73.1,69.3,29.69,SSW,203,0.9,0.9,88,0.02,,,0.61,WUHU216HW,2013-06-29 03:00:00,
2013-06-28 23:05:00,73.1,69.3,29.69,SSW,203,0.9,0.9,88,0.02,,,0.61,WUHU216HW,2013-06-29 03:05:00,
2013-06-28 23:30:00,72.7,68.9,29.71,North,0,0.7,0.7,88,0.08,,,0.63,WUHU216HW,2013-06-29 03:30:00,
2013-06-28 23:35:00,72.7,68.9,29.71,North,0,0.7,0.7,88,0.08,,,0.63,WUHU216HW,2013-06-29 03:35:00,